createdAt,value
2023-04-27T00:01:01.883Z,6.70
2023-04-27T00:03:28.864Z,6.70
2023-04-27T00:05:56.330Z,6.70
2023-04-27T00:08:23.354Z,6.70
2023-04-27T00:10:49.946Z,6.70
2023-04-27T00:13:16.579Z,6.80
2023-04-27T00:15:45.436Z,6.80
2023-04-27T00:18:12.324Z,6.90
2023-04-27T00:20:40.159Z,6.90
2023-04-27T00:23:07.220Z,6.90
2023-04-27T00:25:33.976Z,6.90
2023-04-27T00:28:00.943Z,6.80
2023-04-27T00:30:27.667Z,6.70
2023-04-27T00:32:54.693Z,6.60
2023-04-27T00:35:21.615Z,6.60
2023-04-27T00:37:48.248Z,6.40
2023-04-27T00:40:15.004Z,6.50
2023-04-27T00:42:41.770Z,9.10
2023-04-27T00:45:09.020Z,6.40
2023-04-27T00:47:36.184Z,6.30
2023-04-27T00:50:04.138Z,6.40
2023-04-27T00:52:31.163Z,6.30
2023-04-27T00:54:58.049Z,6.40
2023-04-27T00:57:24.797Z,6.40
2023-04-27T00:59:51.397Z,6.40
2023-04-27T01:02:18.166Z,6.40
2023-04-27T01:04:45.652Z,6.40
2023-04-27T01:07:12.383Z,6.30
2023-04-27T01:09:39.125Z,6.30
2023-04-27T01:12:06.285Z,6.20
2023-04-27T01:14:33.109Z,6.10
2023-04-27T01:16:59.891Z,6.10
2023-04-27T01:19:27.204Z,6.10
2023-04-27T01:21:53.824Z,6.10
2023-04-27T01:24:20.865Z,6.10
2023-04-27T01:26:48.116Z,6.00
2023-04-27T01:29:15.082Z,7.80
2023-04-27T01:31:42.252Z,6.10
2023-04-27T01:34:08.959Z,6.10
2023-04-27T01:36:36.480Z,6.10
2023-04-27T01:39:04.650Z,6.10
2023-04-27T01:41:31.626Z,6.10
2023-04-27T01:43:58.277Z,6.20
2023-04-27T01:46:25.387Z,6.30
2023-04-27T01:48:52.442Z,8.70
2023-04-27T01:51:19.166Z,6.40
2023-04-27T01:53:45.828Z,6.40
2023-04-27T01:56:12.561Z,6.40
2023-04-27T01:58:39.441Z,6.40
2023-04-27T02:01:06.290Z,6.40
2023-04-27T02:03:32.923Z,6.40
2023-04-27T02:05:59.653Z,6.40
2023-04-27T02:08:26.309Z,6.40
2023-04-27T02:10:52.986Z,6.40
2023-04-27T02:13:19.687Z,6.30
2023-04-27T02:15:46.494Z,6.30
2023-04-27T02:18:15.621Z,6.30
2023-04-27T02:20:42.312Z,6.70
2023-04-27T02:23:09.286Z,6.40
2023-04-27T02:25:39.343Z,6.40
2023-04-27T02:28:06.496Z,6.40
2023-04-27T02:30:33.672Z,6.40
2023-04-27T02:33:01.029Z,6.50
2023-04-27T02:35:27.748Z,6.50
2023-04-27T02:37:54.664Z,6.50
2023-04-27T02:40:21.606Z,6.50
2023-04-27T02:42:48.329Z,6.60
2023-04-27T02:45:15.047Z,6.60
2023-04-27T02:47:41.757Z,6.60
2023-04-27T02:50:08.831Z,6.60
2023-04-27T02:52:35.522Z,6.50
2023-04-27T02:55:02.252Z,6.50
2023-04-27T02:57:28.945Z,6.40
2023-04-27T02:59:55.788Z,6.40
2023-04-27T03:02:22.666Z,6.40
2023-04-27T03:04:54.016Z,7.30
2023-04-27T03:07:21.842Z,6.40
2023-04-27T03:09:48.386Z,6.40
2023-04-27T03:12:15.001Z,6.80
2023-04-27T03:14:41.913Z,6.30
2023-04-27T03:17:08.645Z,6.30
2023-04-27T03:19:35.495Z,6.40
2023-04-27T03:22:02.396Z,6.30
2023-04-27T03:24:29.686Z,6.30
2023-04-27T03:26:56.496Z,6.30
2023-04-27T03:29:23.490Z,6.30
2023-04-27T03:31:50.348Z,6.30
2023-04-27T03:34:16.999Z,6.30
2023-04-27T03:36:43.662Z,6.30
2023-04-27T03:39:10.356Z,6.30
2023-04-27T03:41:36.978Z,6.30
2023-04-27T03:44:03.924Z,6.40
2023-04-27T03:46:30.739Z,6.30
2023-04-27T03:48:57.450Z,6.40
2023-04-27T03:51:24.451Z,6.40
2023-04-27T03:53:51.098Z,6.50
2023-04-27T03:56:17.942Z,6.40
2023-04-27T03:58:44.782Z,6.50
2023-04-27T04:01:11.518Z,6.50
2023-04-27T04:03:38.321Z,6.50
2023-04-27T04:06:05.337Z,6.50
2023-04-27T04:08:34.375Z,6.50
2023-04-27T04:11:01.116Z,6.40
2023-04-27T04:13:27.814Z,6.40
2023-04-27T04:16:01.944Z,6.40
2023-04-27T04:18:28.709Z,6.30
2023-04-27T04:20:55.338Z,6.30
2023-04-27T04:23:21.956Z,6.30
2023-04-27T04:25:49.092Z,6.20
2023-04-27T04:28:16.369Z,6.20
2023-04-27T04:30:43.885Z,6.20
2023-04-27T04:33:10.557Z,6.20
2023-04-27T04:35:41.796Z,6.10
2023-04-27T04:38:08.940Z,6.20
2023-04-27T04:40:36.190Z,6.20
2023-04-27T04:43:02.921Z,6.20
2023-04-27T04:45:29.884Z,6.20
2023-04-27T04:47:56.734Z,6.20
2023-04-27T04:50:23.908Z,6.60
2023-04-27T04:52:50.922Z,6.30
2023-04-27T04:55:18.194Z,6.20
2023-04-27T04:57:44.896Z,6.20
2023-04-27T05:00:13.167Z,8.60
2023-04-27T05:02:40.580Z,6.20
2023-04-27T05:05:07.758Z,6.20
2023-04-27T05:07:34.419Z,6.30
2023-04-27T05:10:01.140Z,6.30
2023-04-27T05:12:28.162Z,6.30
2023-04-27T05:14:56.234Z,8.10
2023-04-27T05:17:23.098Z,6.40
2023-04-27T05:19:49.720Z,6.50
2023-04-27T05:22:16.417Z,6.60
2023-04-27T05:24:43.146Z,6.70
2023-04-27T05:27:09.916Z,6.80
2023-04-27T05:29:36.685Z,7.00
2023-04-27T05:32:03.349Z,7.10
2023-04-27T05:34:30.205Z,7.20
2023-04-27T05:36:57.115Z,7.30
2023-04-27T05:39:23.820Z,7.40
2023-04-27T05:41:50.654Z,7.40
2023-04-27T05:44:17.463Z,7.60
2023-04-27T05:46:44.114Z,9.70
2023-04-27T05:49:11.122Z,7.80
2023-04-27T05:51:39.259Z,7.90
2023-04-27T05:54:06.164Z,8.00
2023-04-27T05:56:32.933Z,8.20
2023-04-27T05:59:01.226Z,8.30
2023-04-27T06:01:29.517Z,8.20
2023-04-27T06:03:56.412Z,8.30
2023-04-27T06:06:23.100Z,8.40
2023-04-27T06:08:49.960Z,10.10
2023-04-27T06:11:16.991Z,8.60
2023-04-27T06:13:43.710Z,8.60
2023-04-27T06:16:10.331Z,8.70
2023-04-27T06:18:37.027Z,8.80
2023-04-27T06:21:03.787Z,9.00
2023-04-27T06:23:30.449Z,9.00
2023-04-27T06:25:58.935Z,9.20
2023-04-27T06:28:26.210Z,9.20
2023-04-27T06:30:53.659Z,9.30
2023-04-27T06:33:20.225Z,9.40
2023-04-27T06:35:48.140Z,9.40
2023-04-27T06:38:14.840Z,9.50
2023-04-27T06:40:41.518Z,9.60
2023-04-27T06:43:08.150Z,9.70
2023-04-27T06:45:35.281Z,9.80
2023-04-27T06:48:02.395Z,9.90
2023-04-27T06:50:29.946Z,10.00
2023-04-27T06:52:56.970Z,10.10
2023-04-27T06:55:23.901Z,10.10
2023-04-27T06:57:50.548Z,10.20
2023-04-27T07:00:17.430Z,10.20
2023-04-27T07:02:44.145Z,10.20
2023-04-27T07:05:11.058Z,10.30
2023-04-27T07:07:37.697Z,10.00
2023-04-27T07:10:04.673Z,10.20
2023-04-27T07:12:31.348Z,10.10
2023-04-27T07:14:57.975Z,10.10
2023-04-27T07:17:24.617Z,10.00
2023-04-27T07:19:51.404Z,10.00
2023-04-27T07:22:18.337Z,10.00
2023-04-27T07:24:44.949Z,9.90
2023-04-27T07:27:11.702Z,9.90
2023-04-27T07:29:38.651Z,9.90
2023-04-27T07:32:06.339Z,11.60
2023-04-27T07:34:44.994Z,9.90
2023-04-27T07:37:17.566Z,9.90
2023-04-27T07:39:44.300Z,10.10
2023-04-27T07:42:11.257Z,10.00
2023-04-27T07:44:37.905Z,10.10
2023-04-27T07:47:05.491Z,10.20
2023-04-27T07:49:32.359Z,10.20
2023-04-27T07:51:59.086Z,11.80
2023-04-27T07:54:26.156Z,10.40
2023-04-27T07:56:53.725Z,10.50
2023-04-27T07:59:20.522Z,10.60
2023-04-27T08:01:47.718Z,10.70
2023-04-27T08:04:16.336Z,10.80
2023-04-27T08:06:43.839Z,10.80
2023-04-27T08:09:11.631Z,12.20
2023-04-27T08:11:38.586Z,11.00
2023-04-27T08:14:05.214Z,11.10
2023-04-27T08:16:32.115Z,11.80
2023-04-27T08:19:10.481Z,11.20
2023-04-27T08:21:38.042Z,12.60
2023-04-27T08:24:06.306Z,11.50
2023-04-27T08:26:33.508Z,11.60
2023-04-27T08:29:00.132Z,11.70
2023-04-27T08:31:26.790Z,11.90
2023-04-27T08:33:54.019Z,13.10
2023-04-27T08:36:24.640Z,13.10
2023-04-27T08:38:51.823Z,12.30
2023-04-27T08:41:21.745Z,13.70
2023-04-27T08:43:50.222Z,13.60
2023-04-27T08:46:21.431Z,12.60
2023-04-27T08:48:52.280Z,12.60
2023-04-27T08:51:19.838Z,12.70
2023-04-27T08:53:53.510Z,13.90
2023-04-27T08:56:20.670Z,12.80
2023-04-27T08:58:47.486Z,12.90
2023-04-27T09:01:14.452Z,13.10
2023-04-27T09:03:41.177Z,13.30
2023-04-27T09:06:08.677Z,13.20
2023-04-27T09:09:04.875Z,14.80
2023-04-27T09:11:33.348Z,13.30
2023-04-27T09:14:01.134Z,13.60
2023-04-27T09:16:29.396Z,13.40
2023-04-27T09:18:57.417Z,14.90
2023-04-27T09:21:28.076Z,13.30
2023-04-27T09:23:55.412Z,13.30
2023-04-27T09:26:23.546Z,13.20
2023-04-27T09:28:51.866Z,15.60
2023-04-27T09:31:18.861Z,13.90
2023-04-27T09:33:45.833Z,13.10
2023-04-27T09:36:12.476Z,13.20
2023-04-27T09:38:40.209Z,14.20
2023-04-27T09:41:08.048Z,13.20
2023-04-27T09:43:34.989Z,15.80
2023-04-27T09:46:04.426Z,14.20
2023-04-27T09:48:31.363Z,14.40
2023-04-27T09:50:58.025Z,13.00
2023-04-27T09:53:28.062Z,15.00
2023-04-27T09:56:03.911Z,15.30
2023-04-27T09:58:41.189Z,13.00
2023-04-27T10:01:07.856Z,13.00
2023-04-27T10:03:43.549Z,13.10
2023-04-27T10:06:22.656Z,13.10
2023-04-27T10:08:50.841Z,13.20
2023-04-27T10:11:19.280Z,13.50
2023-04-27T10:13:54.353Z,14.80
2023-04-27T10:16:22.004Z,13.80
2023-04-27T10:18:55.673Z,13.90
2023-04-27T10:21:22.374Z,14.10
2023-04-27T10:23:52.104Z,16.10
2023-04-27T10:26:22.913Z,15.20
2023-04-27T10:29:19.863Z,14.40
2023-04-27T10:31:48.098Z,14.50
2023-04-27T10:34:21.163Z,16.10
2023-04-27T10:36:48.312Z,14.50
2023-04-27T10:39:18.906Z,14.50
2023-04-27T10:41:49.469Z,16.60
2023-04-27T10:44:20.108Z,14.40
2023-04-27T10:46:50.484Z,14.40
2023-04-27T10:49:17.490Z,14.40
2023-04-27T10:51:44.136Z,14.60
2023-04-27T10:54:11.343Z,15.20
2023-04-27T10:56:38.277Z,14.50
2023-04-27T10:59:05.821Z,15.60
2023-04-27T11:01:32.534Z,15.70
2023-04-27T11:03:59.875Z,15.70
2023-04-27T11:06:28.337Z,15.70
2023-04-27T11:08:55.074Z,15.80
2023-04-27T11:11:22.575Z,15.90
2023-04-27T11:13:49.961Z,17.10
2023-04-27T11:16:16.806Z,16.40
2023-04-27T11:18:43.394Z,16.60
2023-04-27T11:21:11.529Z,18.10
2023-04-27T11:23:38.802Z,17.20
2023-04-27T11:26:13.546Z,18.00
2023-04-27T11:28:40.695Z,17.10
2023-04-27T11:31:07.534Z,19.20
2023-04-27T11:33:35.846Z,17.00
2023-04-27T11:36:03.429Z,16.90
2023-04-27T11:38:33.816Z,17.50
2023-04-27T11:41:01.807Z,16.80
2023-04-27T11:43:28.559Z,17.80
2023-04-27T11:45:55.662Z,17.40
2023-04-27T11:48:27.238Z,17.00
2023-04-27T11:50:54.012Z,16.60
2023-04-27T11:53:34.334Z,17.10
2023-04-27T11:56:02.513Z,16.60
2023-04-27T11:58:30.359Z,17.10
2023-04-27T12:03:39.211Z,16.30
2023-04-27T12:06:27.542Z,16.30
2023-04-27T12:08:53.167Z,16.20
2023-04-27T12:11:19.911Z,17.70
2023-04-27T12:13:47.235Z,16.20
2023-04-27T12:16:13.945Z,17.40
2023-04-27T12:18:41.010Z,16.60
2023-04-27T12:21:08.716Z,16.50
2023-04-27T12:23:35.812Z,16.50
2023-04-27T12:26:02.944Z,16.60
2023-04-27T12:28:29.558Z,16.50
2023-04-27T12:30:56.343Z,16.50
2023-04-27T12:33:23.158Z,16.80
2023-04-27T12:35:50.079Z,19.00
2023-04-27T12:38:17.040Z,17.70
2023-04-27T12:40:43.838Z,16.90
2023-04-27T12:43:10.859Z,16.20
2023-04-27T12:45:37.545Z,18.80
2023-04-27T12:48:04.579Z,17.60
2023-04-27T12:50:32.556Z,16.40
2023-04-27T12:53:00.524Z,17.40
2023-04-27T12:55:33.658Z,16.60
2023-04-27T12:58:01.258Z,17.30
2023-04-27T13:00:29.339Z,16.80
2023-04-27T13:02:56.724Z,17.30
2023-04-27T13:05:23.662Z,17.00
2023-04-27T13:07:50.357Z,17.00
2023-04-27T13:10:16.949Z,17.00
2023-04-27T13:12:43.709Z,17.00
2023-04-27T13:15:10.925Z,18.50
2023-04-27T13:17:37.907Z,17.30
2023-04-27T13:20:04.869Z,18.50
2023-04-27T13:22:31.531Z,17.20
2023-04-27T13:24:58.159Z,17.30
2023-04-27T13:27:28.616Z,18.40
2023-04-27T13:29:56.076Z,17.30
2023-04-27T13:32:23.050Z,17.40
2023-04-27T13:34:49.776Z,18.90
2023-04-27T13:37:16.761Z,17.30
2023-04-27T13:39:43.336Z,17.20
2023-04-27T13:42:10.136Z,17.00
2023-04-27T13:44:37.049Z,16.90
2023-04-27T13:47:03.964Z,16.80
2023-04-27T13:49:30.860Z,16.70
2023-04-27T13:51:58.508Z,16.50
2023-04-27T13:54:25.160Z,16.30
2023-04-27T13:56:51.822Z,18.90
2023-04-27T13:59:18.632Z,16.30
2023-04-27T14:01:45.640Z,16.50
2023-04-27T14:04:12.337Z,16.60
2023-04-27T14:06:39.206Z,17.50
2023-04-27T14:09:05.838Z,16.60
2023-04-27T14:11:37.321Z,16.60
2023-04-27T14:14:11.937Z,16.70
2023-04-27T14:16:38.602Z,16.80
2023-04-27T14:19:05.451Z,16.90
2023-04-27T14:21:32.175Z,16.80
2023-04-27T14:23:58.774Z,16.90
2023-04-27T14:26:25.603Z,16.90
2023-04-27T14:28:52.275Z,17.00
2023-04-27T14:31:19.112Z,17.00
2023-04-27T14:33:46.127Z,16.80
2023-04-27T14:36:12.779Z,16.80
2023-04-27T14:38:39.401Z,16.80
2023-04-27T14:41:06.107Z,16.90
2023-04-27T14:43:32.796Z,17.00
2023-04-27T14:46:05.114Z,17.00
2023-04-27T14:48:46.869Z,17.00
2023-04-27T14:51:13.915Z,17.00
2023-04-27T14:53:40.657Z,17.10
2023-04-27T14:56:07.293Z,16.90
2023-04-27T14:58:34.439Z,16.70
2023-04-27T15:01:01.502Z,19.20
2023-04-27T15:03:28.685Z,16.50
2023-04-27T15:05:55.536Z,16.50
2023-04-27T15:08:22.310Z,16.40
2023-04-27T15:10:48.948Z,17.20
2023-04-27T15:13:15.920Z,16.50
2023-04-27T15:15:45.647Z,17.10
2023-04-27T15:18:12.446Z,16.60
2023-04-27T15:20:39.069Z,16.80
2023-04-27T15:23:05.608Z,16.80
2023-04-27T15:25:32.259Z,16.90
2023-04-27T15:27:59.445Z,16.90
2023-04-27T15:30:26.058Z,16.80
2023-04-27T15:32:52.734Z,16.80
2023-04-27T15:35:19.541Z,16.80
2023-04-27T15:37:46.502Z,19.20
2023-04-27T15:40:13.204Z,16.70
2023-04-27T15:42:39.856Z,16.80
2023-04-27T15:45:09.267Z,16.90
2023-04-27T15:47:36.743Z,16.90
2023-04-27T15:50:03.509Z,17.00
2023-04-27T15:52:30.054Z,17.00
2023-04-27T15:54:57.276Z,17.80
2023-04-27T15:57:23.866Z,18.20
2023-04-27T15:59:53.358Z,15.40
2023-04-27T16:02:20.015Z,17.20
2023-04-27T16:04:48.351Z,17.10
2023-04-27T16:07:15.094Z,17.10
2023-04-27T16:09:41.806Z,17.10
2023-04-27T16:12:08.726Z,16.80
2023-04-27T16:14:35.306Z,17.10
2023-04-27T16:17:02.047Z,16.50
2023-04-27T16:19:29.043Z,16.40
2023-04-27T16:21:55.955Z,16.20
2023-04-27T16:24:22.931Z,17.50
2023-04-27T16:26:49.590Z,16.10
2023-04-27T16:29:16.669Z,16.00
2023-04-27T16:31:44.808Z,17.00
2023-04-27T16:34:11.748Z,18.00
2023-04-27T16:36:38.415Z,16.40
2023-04-27T16:39:05.251Z,16.10
2023-04-27T16:41:31.960Z,16.10
2023-04-27T16:43:58.639Z,17.30
2023-04-27T16:46:25.455Z,16.90
2023-04-27T16:48:52.171Z,15.70
2023-04-27T16:51:19.048Z,18.20
2023-04-27T16:53:46.047Z,15.90
2023-04-27T16:56:14.063Z,15.90
2023-04-27T16:58:41.050Z,17.60
2023-04-27T17:01:07.901Z,16.00
2023-04-27T17:03:36.192Z,17.30
2023-04-27T17:06:03.381Z,18.20
2023-04-27T17:08:30.053Z,16.90
2023-04-27T17:10:56.940Z,17.00
2023-04-27T17:13:24.999Z,15.90
2023-04-27T17:15:51.951Z,16.70
2023-04-27T17:18:18.638Z,16.40
2023-04-27T17:20:45.321Z,15.80
2023-04-27T17:23:11.975Z,18.20
2023-04-27T17:25:38.590Z,15.70
2023-04-27T17:28:05.442Z,18.20
2023-04-27T17:30:32.074Z,15.60
2023-04-27T17:32:58.763Z,16.90
2023-04-27T17:35:25.426Z,15.90
2023-04-27T17:37:52.489Z,15.50
2023-04-27T17:40:21.162Z,15.30
2023-04-27T17:42:48.122Z,15.20
2023-04-27T17:45:15.083Z,15.30
2023-04-27T17:47:41.802Z,16.70
2023-04-27T17:50:08.903Z,17.90
2023-04-27T17:52:35.793Z,14.70
2023-04-27T17:55:02.977Z,17.10
2023-04-27T17:57:29.684Z,15.80
2023-04-27T17:59:56.281Z,16.90
2023-04-27T18:02:23.274Z,17.20
2023-04-27T18:04:50.041Z,15.90
2023-04-27T18:07:18.625Z,14.10
2023-04-27T18:09:45.583Z,14.10
2023-04-27T18:12:12.247Z,14.40
2023-04-27T18:14:39.176Z,16.70
2023-04-27T18:17:06.167Z,15.10
2023-04-27T18:19:32.821Z,14.20
2023-04-27T18:21:59.582Z,15.90
2023-04-27T18:24:26.177Z,13.50
2023-04-27T18:26:52.835Z,13.50
2023-04-27T18:29:19.426Z,13.40
2023-04-27T18:31:46.291Z,16.60
2023-04-27T18:34:14.381Z,13.50
2023-04-27T18:36:41.152Z,13.20
2023-04-27T18:39:07.885Z,13.10
2023-04-27T18:41:34.620Z,15.50
2023-04-27T18:44:05.634Z,13.00
2023-04-27T18:46:32.971Z,12.90
2023-04-27T18:49:00.504Z,13.50
2023-04-27T18:51:27.565Z,15.90
2023-04-27T18:53:54.532Z,14.60
2023-04-27T18:56:21.485Z,12.40
2023-04-27T18:58:48.710Z,14.70
2023-04-27T19:01:22.386Z,12.90
2023-04-27T19:03:49.390Z,11.80
2023-04-27T19:06:17.862Z,13.50
2023-04-27T19:08:45.719Z,12.90
2023-04-27T19:11:12.752Z,11.40
2023-04-27T19:13:43.015Z,11.80
2023-04-27T19:16:10.239Z,13.80
2023-04-27T19:18:37.357Z,11.10
2023-04-27T19:21:04.062Z,11.10
2023-04-27T19:23:30.985Z,10.90
2023-04-27T19:26:09.692Z,12.80
2023-04-27T19:28:39.374Z,11.10
2023-04-27T19:31:07.088Z,11.20
2023-04-27T19:33:33.900Z,11.20
2023-04-27T19:36:00.885Z,14.20
2023-04-27T19:38:27.790Z,14.60
2023-04-27T19:40:54.375Z,11.00
2023-04-27T19:43:22.334Z,10.90
2023-04-27T19:45:49.352Z,10.80
2023-04-27T19:48:16.148Z,13.50
2023-04-27T19:50:43.260Z,10.80
2023-04-27T19:53:10.958Z,10.80
2023-04-27T19:55:38.107Z,12.50
2023-04-27T19:58:06.595Z,10.90
2023-04-27T20:00:33.326Z,12.30
2023-04-27T20:03:00.362Z,11.60
2023-04-27T20:05:27.294Z,10.90
2023-04-27T20:07:54.163Z,10.90
2023-04-27T20:10:21.433Z,11.00
2023-04-27T20:12:55.974Z,12.90
2023-04-27T20:15:24.343Z,11.00
2023-04-27T20:17:51.610Z,11.10
2023-04-27T20:20:19.577Z,10.90
2023-04-27T20:22:46.397Z,10.80
2023-04-27T20:25:14.615Z,12.90
2023-04-27T20:27:41.657Z,10.80
2023-04-27T20:30:08.802Z,10.70
2023-04-27T20:32:36.247Z,10.60
2023-04-27T20:35:04.770Z,12.50
2023-04-27T20:37:32.419Z,12.30
2023-04-27T20:39:59.353Z,13.20
2023-04-27T20:42:26.240Z,12.50
2023-04-27T20:44:54.904Z,10.60
2023-04-27T20:47:22.005Z,10.60
2023-04-27T20:49:48.906Z,10.60
2023-04-27T20:52:15.777Z,13.40
2023-04-27T20:54:42.443Z,13.60
2023-04-27T20:57:13.458Z,10.60
2023-04-27T20:59:40.815Z,10.70
2023-04-27T21:02:07.747Z,12.50
2023-04-27T21:04:34.626Z,12.40
2023-04-27T21:07:01.371Z,10.60
2023-04-27T21:09:28.055Z,10.60
2023-04-27T21:11:54.765Z,10.60
2023-04-27T21:14:21.410Z,10.50
2023-04-27T21:16:48.127Z,13.20
2023-04-27T21:19:16.586Z,13.80
2023-04-27T21:21:43.281Z,11.90
2023-04-27T21:24:09.845Z,12.10
2023-04-27T21:26:36.871Z,10.40
2023-04-27T21:29:05.957Z,10.40
2023-04-27T21:31:33.403Z,11.20
2023-04-27T21:34:00.240Z,10.40
2023-04-27T21:36:27.200Z,10.30
2023-04-27T21:38:53.726Z,11.70
2023-04-27T21:41:20.507Z,12.10
2023-04-27T21:43:47.163Z,10.80
2023-04-27T21:46:13.742Z,10.20
2023-04-27T21:48:40.440Z,10.90
2023-04-27T21:51:07.131Z,10.20
2023-04-27T21:53:33.710Z,10.20
2023-04-27T21:56:00.380Z,13.50
2023-04-27T21:58:27.354Z,12.70
2023-04-27T22:00:53.950Z,10.10
2023-04-27T22:03:21.729Z,10.20
2023-04-27T22:05:52.945Z,12.10
2023-04-27T22:08:19.925Z,10.00
2023-04-27T22:10:47.359Z,10.40
2023-04-27T22:15:43.579Z,10.90
2023-04-27T22:18:10.256Z,10.00
2023-04-27T22:20:37.276Z,10.00
2023-04-27T22:23:04.117Z,9.90
2023-04-27T22:25:31.146Z,9.90
2023-04-27T22:27:57.821Z,9.80
2023-04-27T22:30:24.836Z,9.80
2023-04-27T22:32:52.071Z,9.70
2023-04-27T22:35:26.251Z,9.60
2023-04-27T22:37:54.455Z,9.60
2023-04-27T22:40:21.168Z,9.50
2023-04-27T22:42:47.695Z,9.50
2023-04-27T22:45:14.346Z,9.40
2023-04-27T22:47:41.454Z,9.40
2023-04-27T22:50:08.556Z,9.40
2023-04-27T22:52:37.146Z,9.50
2023-04-27T22:55:04.330Z,9.50
2023-04-27T22:57:30.930Z,9.50
2023-04-27T22:59:57.514Z,12.00
2023-04-27T23:02:24.221Z,12.60
2023-04-27T23:04:51.235Z,9.60
2023-04-27T23:07:18.424Z,9.60
2023-04-27T23:09:45.329Z,12.50
2023-04-27T23:12:12.117Z,9.60
2023-04-27T23:14:40.041Z,9.60
2023-04-27T23:17:07.398Z,9.50
2023-04-27T23:19:34.394Z,11.40
2023-04-27T23:22:01.924Z,12.40
2023-04-27T23:24:31.785Z,9.60
2023-04-27T23:26:58.809Z,9.60
2023-04-27T23:29:25.520Z,9.70
2023-04-27T23:31:52.503Z,9.70
2023-04-27T23:34:19.120Z,9.80
2023-04-27T23:36:45.742Z,12.90
2023-04-27T23:39:12.373Z,11.30
2023-04-27T23:41:38.988Z,10.60
2023-04-27T23:44:05.806Z,9.70
2023-04-27T23:46:32.432Z,9.70
2023-04-27T23:48:59.101Z,9.70
2023-04-27T23:51:25.796Z,9.70
2023-04-27T23:53:52.319Z,9.70
2023-04-27T23:56:19.362Z,9.70
2023-04-27T23:58:45.972Z,9.70
